Time;durP1;ratioP1;P1;durP2;ratioP2;P2;SDS_P1;SDS_P2;PMS_P1;PMS_P2;Temp;Humidity;BMP_temperature;BMP_pressure;BME280_temperature;BME280_humidity;BME280_pressure;Samples;Min_cycle;Max_cycle;Signal;HPM_P1;HPM_P2
2022/01/25 00:10:41;;;;;;;65.20;42.70;;;;;;;-0.86;84.26;100878.35;430835;1273;143688;-61
2022/01/25 00:31:13;;;;;;;74.50;42.20;;;;;;;-0.85;84.79;100858.08;430333;1273;143413;-61
2022/01/25 00:41:20;;;;;;;58.00;38.20;;;;;;;-0.79;85.18;100841.92;429377;1273;144106;-59
2022/01/25 01:01:58;;;;;;;72.50;41.10;;;;;;;-0.77;85.13;100817.15;429475;1273;141426;-62
2022/01/25 01:12:10;;;;;;;69.10;39.10;;;;;;;-0.74;85.80;100818.73;430328;1273;142672;-60
2022/01/25 01:33:12;;;;;;;64.80;37.30;;;;;;;-0.69;85.95;100788.98;430059;1273;142553;-61
2022/01/25 01:43:29;;;;;;;62.90;36.90;;;;;;;-0.74;85.81;100777.45;430633;1273;143677;-60
2022/01/25 01:53:36;;;;;;;67.20;36.60;;;;;;;-0.74;86.28;100772.98;430951;1273;142735;-58
2022/01/25 02:03:41;;;;;;;;;;;;;;;-0.73;86.40;100758.36;435157;1273;142662;-59
2022/01/25 02:13:48;;;;;;;49.40;29.30;;;;;;;-0.67;86.30;100761.13;434613;1273;128691;-59
2022/01/25 02:23:53;;;;;;;40.50;25.70;;;;;;;-0.58;86.50;100753.73;433525;1273;143214;-59
2022/01/25 02:33:59;;;;;;;44.20;30.60;;;;;;;-0.50;86.71;100751.33;430220;1273;143754;-58
2022/01/25 02:44:08;;;;;;;44.20;26.30;;;;;;;-0.42;86.59;100741.02;430606;1273;142123;-58
2022/01/25 02:54:15;;;;;;;43.90;26.40;;;;;;;-0.39;86.83;100728.63;431703;1273;141912;-62
2022/01/25 03:04:23;;;;;;;36.00;22.70;;;;;;;-0.36;86.98;100723.96;431089;1273;142030;-60
2022/01/25 03:14:32;;;;;;;29.20;19.10;;;;;;;-0.31;87.28;100708.99;429848;1272;142306;-57
2022/01/25 03:24:38;;;;;;;32.00;19.00;;;;;;;-0.27;87.45;100706.76;433801;1273;142177;-59
2022/01/25 03:34:44;;;;;;;26.80;16.40;;;;;;;-0.23;87.55;100698.15;435549;1273;144790;-61
2022/01/25 03:44:50;;;;;;;26.90;15.50;;;;;;;-0.15;87.70;100699.17;432925;1273;144062;-59
2022/01/25 03:54:56;;;;;;;26.80;16.00;;;;;;;-0.05;87.39;100692.27;433600;1273;142565;-57
2022/01/25 04:05:03;;;;;;;27.00;17.30;;;;;;;0.01;87.57;100679.84;440295;1273;142823;-59
2022/01/25 04:15:10;;;;;;;20.30;14.70;;;;;;;0.07;87.48;100670.52;440909;1273;140956;-59
2022/01/25 04:25:16;;;;;;;23.00;13.90;;;;;;;0.11;87.32;100659.66;437320;1273;142779;-59
2022/01/25 04:35:42;;;;;;;24.20;15.40;;;;;;;0.12;87.37;100647.79;446180;1273;141993;-59
2022/01/25 04:56:18;;;;;;;28.30;16.50;;;;;;;0.16;87.37;100636.41;444543;1273;141902;-60
2022/01/25 05:06:25;;;;;;;24.50;15.30;;;;;;;0.21;87.21;100617.44;431163;1276;141320;-59
2022/01/25 05:16:33;;;;;;;20.60;13.10;;;;;;;0.18;87.28;100615.90;437313;1273;146623;-58
2022/01/25 05:26:39;;;;;;;21.00;14.00;;;;;;;0.16;87.40;100612.45;433653;1274;141333;-62
2022/01/25 05:36:45;;;;;;;15.80;11.90;;;;;;;0.15;87.40;100612.30;441308;1273;141906;-59
2022/01/25 05:47:04;;;;;;;17.70;11.80;;;;;;;0.18;87.59;100613.33;439032;1273;141976;-58
2022/01/25 05:57:11;;;;;;;17.30;12.70;;;;;;;0.17;87.48;100609.71;431654;1273;141844;-59
2022/01/25 06:07:17;;;;;;;14.70;11.40;;;;;;;0.11;87.36;100606.46;431415;1274;143703;-59
2022/01/25 06:17:23;;;;;;;12.70;9.90;;;;;;;0.06;87.46;100608.89;435458;1273;142294;-59
2022/01/25 06:27:29;;;;;;;14.40;9.50;;;;;;;0.03;87.69;100595.83;442913;1274;142836;-59
2022/01/25 06:37:35;;;;;;;17.00;11.60;;;;;;;0.05;87.48;100603.39;438043;1273;142253;-59
2022/01/25 06:47:41;;;;;;;16.20;12.00;;;;;;;0.04;87.55;100601.33;436954;1273;145411;-58
2022/01/25 06:57:48;;;;;;;15.90;10.40;;;;;;;0.03;87.20;100597.20;439775;1273;144799;-58
2022/01/25 07:07:54;;;;;;;11.90;9.50;;;;;;;0.09;87.53;100599.41;441696;1273;142845;-59
2022/01/25 07:18:00;;;;;;;14.40;11.00;;;;;;;0.11;87.54;100602.32;433895;1273;142184;-59
2022/01/25 07:28:06;;;;;;;12.00;10.00;;;;;;;0.14;87.36;100609.38;431059;1273;142385;-60
2022/01/25 07:38:14;;;;;;;13.30;10.40;;;;;;;0.20;87.49;100601.42;437060;1273;141642;-59
2022/01/25 07:48:29;;;;;;;18.10;12.10;;;;;;;0.25;87.48;100597.44;435835;1273;146457;-59
2022/01/25 07:58:36;;;;;;;14.40;11.20;;;;;;;0.36;87.55;100587.91;446743;1273;142526;-69
2022/01/25 08:08:43;;;;;;;14.10;11.10;;;;;;;0.47;87.34;100586.80;446697;1273;142035;-67
2022/01/25 08:18:50;;;;;;;15.40;12.20;;;;;;;0.54;87.47;100584.02;443138;1273;142004;-77
2022/01/25 08:28:59;;;;;;;16.00;11.50;;;;;;;0.58;87.31;100572.62;432142;1273;143952;-69
2022/01/25 08:39:09;;;;;;;14.00;10.80;;;;;;;0.61;87.22;100564.48;430467;1274;141699;-77
2022/01/25 08:49:16;;;;;;;15.20;10.50;;;;;;;0.71;87.42;100560.63;432334;1273;142968;-73
2022/01/25 08:59:27;;;;;;;13.30;10.40;;;;;;;0.78;87.25;100555.56;436125;1273;141457;-65
2022/01/25 09:09:33;;;;;;;14.30;10.70;;;;;;;0.86;87.29;100550.50;443412;1271;141954;-65
2022/01/25 09:19:39;;;;;;;17.10;11.90;;;;;;;0.98;86.93;100531.77;440111;1273;141712;-69
2022/01/25 09:29:45;;;;;;;17.50;12.90;;;;;;;1.14;86.90;100528.01;436960;1272;141683;-68
2022/01/25 09:39:51;;;;;;;16.40;13.30;;;;;;;1.15;86.64;100514.36;432096;1273;142451;-66
2022/01/25 09:49:57;;;;;;;20.40;13.40;;;;;;;1.24;86.53;100514.63;429663;1273;142289;-66
2022/01/25 10:00:03;;;;;;;18.00;13.00;;;;;;;1.23;86.57;100502.55;434217;1272;141359;-80
2022/01/25 10:10:11;;;;;;;18.00;12.10;;;;;;;1.23;86.48;100513.42;431577;1273;141905;-65
2022/01/25 10:20:30;;;;;;;18.30;11.90;;;;;;;1.18;86.52;100528.14;434138;1273;142491;-75
2022/01/25 10:30:40;;;;;;;18.90;13.60;;;;;;;1.26;86.52;100520.98;434124;1273;142746;-70
2022/01/25 10:41:04;;;;;;;18.60;13.40;;;;;;;1.32;86.53;100511.61;444603;1273;184969;-68
2022/01/25 10:51:12;;;;;;;15.00;12.80;;;;;;;1.32;86.33;100511.94;436393;1273;142035;-73
2022/01/25 11:01:31;;;;;;;16.40;10.30;;;;;;;1.33;86.48;100500.38;439010;1273;140892;-79
2022/01/25 11:11:45;;;;;;;14.90;10.50;;;;;;;1.51;86.43;100494.29;432629;1273;141801;-74
2022/01/25 11:21:52;;;;;;;14.80;10.90;;;;;;;1.62;86.28;100487.44;443080;1273;141466;-67
2022/01/25 11:32:02;;;;;;;14.80;11.00;;;;;;;1.74;86.43;100480.73;439318;1272;142678;-70
2022/01/25 11:42:12;;;;;;;15.90;12.30;;;;;;;1.81;86.11;100473.92;433279;1272;141827;-74
2022/01/25 11:52:18;;;;;;;15.90;10.90;;;;;;;1.84;86.18;100465.93;436596;1273;140750;-68
2022/01/25 12:02:45;;;;;;;14.90;10.90;;;;;;;1.86;86.15;100457.08;437961;1273;142223;-65
2022/01/25 12:13:23;;;;;;;15.40;11.00;;;;;;;1.74;86.30;100457.43;440502;1273;141906;-64
2022/01/25 12:23:44;;;;;;;14.80;10.80;;;;;;;1.69;86.22;100460.41;435469;1273;143135;-75
2022/01/25 12:33:50;;;;;;;15.20;12.10;;;;;;;1.56;86.37;100457.48;438354;1273;141466;-70
2022/01/25 12:43:59;;;;;;;17.50;10.80;;;;;;;1.59;86.68;100459.00;437183;1273;141863;-80
2022/01/25 12:54:08;;;;;;;17.10;11.60;;;;;;;1.58;86.56;100451.77;439571;1273;142202;-62
2022/01/25 13:04:16;;;;;;;15.40;11.30;;;;;;;1.54;86.65;100448.02;440192;1273;141712;-59
2022/01/25 13:14:46;;;;;;;16.30;11.40;;;;;;;1.59;86.82;100437.61;436280;1273;142502;-62
2022/01/25 13:24:59;;;;;;;14.60;11.00;;;;;;;1.58;86.84;100434.31;436804;1273;141581;-72
2022/01/25 13:35:16;;;;;;;11.40;9.80;;;;;;;1.44;86.76;100427.79;432660;1272;142510;-71
2022/01/25 13:55:51;;;;;;;12.70;10.60;;;;;;;1.30;87.27;100424.34;432856;1273;141548;-63
2022/01/25 14:05:58;;;;;;;12.90;10.70;;;;;;;1.31;87.47;100418.27;432871;1273;141281;-63
2022/01/25 14:26:34;;;;;;;15.10;11.00;;;;;;;1.25;87.49;100415.25;442001;1273;141840;-62
2022/01/25 14:36:43;;;;;;;18.20;12.40;;;;;;;1.22;87.67;100420.11;434291;1271;142541;-69
2022/01/25 14:46:53;;;;;;;16.50;13.10;;;;;;;1.15;87.81;100423.83;432519;1273;142135;-72
2022/01/25 14:57:05;;;;;;;16.30;12.00;;;;;;;1.13;87.86;100432.64;438739;1273;141246;-70
2022/01/25 15:07:14;;;;;;;11.10;9.10;;;;;;;1.07;88.01;100432.37;438383;1273;142402;-72
2022/01/25 15:17:20;;;;;;;16.90;11.30;;;;;;;0.97;88.03;100435.58;436253;1272;140840;-71
2022/01/25 15:27:29;;;;;;;13.70;9.70;;;;;;;0.91;88.26;100444.61;436992;1273;141721;-66
2022/01/25 15:37:36;;;;;;;12.70;9.70;;;;;;;0.82;88.25;100442.63;431640;1273;141301;-70
2022/01/25 15:47:42;;;;;;;17.90;12.00;;;;;;;0.81;88.53;100442.29;446639;1271;141710;-70
2022/01/25 15:57:49;;;;;;;16.10;12.00;;;;;;;0.81;88.53;100444.20;438127;1273;143185;-69
2022/01/25 16:07:54;;;;;;;14.30;10.80;;;;;;;0.80;88.72;100447.13;438874;1273;141763;-67
2022/01/25 16:18:00;;;;;;;15.40;10.80;;;;;;;0.81;88.79;100446.08;436376;1273;186289;-69
2022/01/25 16:28:09;;;;;;;12.80;9.60;;;;;;;0.82;88.92;100441.93;440519;1273;141776;-69
2022/01/25 16:38:15;;;;;;;15.60;11.50;;;;;;;0.81;88.99;100441.10;437907;1273;143997;-69
2022/01/25 16:48:22;;;;;;;18.10;12.90;;;;;;;0.81;89.13;100443.50;438303;1273;142524;-66
2022/01/25 16:58:28;;;;;;;23.00;15.60;;;;;;;0.85;89.19;100446.90;435805;1273;142947;-70
2022/01/25 17:08:33;;;;;;;19.50;14.70;;;;;;;0.86;89.34;100446.38;432659;1273;141387;-69
2022/01/25 17:18:40;;;;;;;25.60;17.10;;;;;;;0.91;89.36;100441.48;433673;1273;141329;-68
2022/01/25 17:28:46;;;;;;;23.60;16.90;;;;;;;0.97;89.38;100440.58;433117;1273;142704;-70
2022/01/25 17:38:52;;;;;;;21.10;15.00;;;;;;;1.10;89.44;100437.33;433506;1273;145370;-71
2022/01/25 17:48:59;;;;;;;20.80;14.50;;;;;;;1.18;89.34;100439.15;435725;1271;142644;-66
2022/01/25 17:59:07;;;;;;;17.50;13.00;;;;;;;1.23;89.37;100434.42;435172;1273;142450;-63
2022/01/25 18:09:13;;;;;;;16.00;11.10;;;;;;;1.22;89.30;100433.40;434862;1273;142321;-65
2022/01/25 18:19:19;;;;;;;18.40;13.80;;;;;;;1.18;89.30;100438.09;437146;1271;142727;-68
2022/01/25 18:29:25;;;;;;;17.50;13.80;;;;;;;1.22;89.47;100438.23;437274;1273;145116;-65
2022/01/25 18:39:31;;;;;;;15.20;12.00;;;;;;;1.27;89.53;100444.56;435316;1272;143661;-66
2022/01/25 18:49:38;;;;;;;21.00;12.10;;;;;;;1.29;89.54;100445.92;439886;1273;142230;-67
2022/01/25 18:59:43;;;;;;;16.60;10.40;;;;;;;1.33;89.48;100437.07;440391;1272;142771;-66
2022/01/25 19:09:50;;;;;;;13.80;9.20;;;;;;;1.35;89.57;100443.25;446767;1273;142515;-66
2022/01/25 19:19:56;;;;;;;15.20;11.60;;;;;;;1.37;89.49;100428.21;435462;1273;142579;-66
2022/01/25 19:30:03;;;;;;;16.20;13.00;;;;;;;1.37;89.56;100422.52;436061;1273;140820;-65
2022/01/25 19:40:10;;;;;;;16.60;12.40;;;;;;;1.36;89.56;100426.67;436816;1274;142324;-66
2022/01/25 19:50:16;;;;;;;18.20;13.70;;;;;;;1.34;89.63;100427.39;444253;1273;142214;-65
2022/01/25 20:00:24;;;;;;;17.90;13.30;;;;;;;1.39;89.55;100428.70;430801;1273;141751;-65
2022/01/25 20:10:34;;;;;;;16.70;13.40;;;;;;;1.44;89.70;100430.55;437632;1273;142576;-65
2022/01/25 20:20:45;;;;;;;15.90;11.50;;;;;;;1.44;89.70;100422.95;432875;1274;141379;-66
2022/01/25 20:31:04;;;;;;;16.00;12.10;;;;;;;1.49;89.66;100424.79;436477;1273;183819;-66
2022/01/25 20:41:11;;;;;;;14.30;11.60;;;;;;;1.52;89.66;100423.36;432166;1273;143511;-65
2022/01/25 20:51:19;;;;;;;13.60;11.60;;;;;;;1.53;89.58;100430.61;437184;1273;141491;-66
2022/01/25 21:01:30;;;;;;;15.70;10.80;;;;;;;1.59;89.60;100437.08;432098;1274;140898;-63
2022/01/25 21:11:36;;;;;;;14.40;10.60;;;;;;;1.60;89.51;100438.27;431718;1273;141344;-66
2022/01/25 21:21:47;;;;;;;14.20;11.60;;;;;;;1.57;89.52;100437.81;432565;1273;142615;-64
2022/01/25 21:31:53;;;;;;;18.40;12.40;;;;;;;1.57;89.44;100431.94;433426;1273;142063;-65
2022/01/25 21:42:00;;;;;;;16.80;13.10;;;;;;;1.61;89.49;100421.17;432145;1273;142539;-65
2022/01/25 21:52:06;;;;;;;22.40;14.10;;;;;;;1.66;89.44;100417.30;431940;1273;141498;-65
2022/01/25 22:02:13;;;;;;;19.60;13.60;;;;;;;1.67;89.44;100405.92;433028;1273;142687;-61
2022/01/25 22:12:32;;;;;;;17.90;13.30;;;;;;;1.62;89.47;100398.02;434625;1273;142321;-60
2022/01/25 22:22:38;;;;;;;15.80;12.50;;;;;;;1.63;89.48;100396.98;432266;1273;141168;-61
2022/01/25 22:32:46;;;;;;;13.50;11.50;;;;;;;1.63;89.31;100393.18;430853;1273;142074;-60
2022/01/25 22:42:53;;;;;;;13.10;8.90;;;;;;;1.56;89.42;100388.11;433441;1273;141490;-60
2022/01/25 22:52:59;;;;;;;9.90;7.80;;;;;;;1.44;89.30;100384.13;429887;1273;141517;-61
2022/01/25 23:03:07;;;;;;;8.50;6.20;;;;;;;1.39;89.39;100384.89;432207;1273;141742;-62
2022/01/25 23:23:37;;;;;;;9.40;5.80;;;;;;;1.38;89.13;100382.31;430224;1274;141634;-62
2022/01/25 23:33:56;;;;;;;9.40;6.80;;;;;;;1.39;89.04;100377.13;431596;1271;155742;-63
2022/01/25 23:44:07;;;;;;;8.20;6.70;;;;;;;1.34;88.99;100371.33;430251;1271;142172;-63
2022/01/25 23:57:37;;;;;;;10.70;8.30;;;;;;;1.28;89.02;100377.27;431084;1274;141613;-64
